sensor_id;sensor_type;location;lat;lon;timestamp;pressure;altitude;pressure_sealevel;temperature;humidity
8051;BME280;4068;42.158;24.732;2023-02-20T00:02:14;99780.16;;;13.86;53.48
8051;BME280;4068;42.158;24.732;2023-02-20T00:04:40;99785.78;;;13.83;53.37
8051;BME280;4068;42.158;24.732;2023-02-20T00:07:06;99788.03;;;13.88;52.95
8051;BME280;4068;42.158;24.732;2023-02-20T00:09:31;99799.13;;;13.93;52.80
8051;BME280;4068;42.158;24.732;2023-02-20T00:11:57;99788.03;;;13.88;52.83
8051;BME280;4068;42.158;24.732;2023-02-20T00:14:22;99802.63;;;13.93;53.01
8051;BME280;4068;42.158;24.732;2023-02-20T00:16:48;99804.59;;;13.91;52.99
8051;BME280;4068;42.158;24.732;2023-02-20T00:19:13;99814.16;;;13.94;52.90
8051;BME280;4068;42.158;24.732;2023-02-20T00:21:46;99807.94;;;13.84;52.86
8051;BME280;4068;42.158;24.732;2023-02-20T00:24:12;99824.09;;;13.92;52.86
8051;BME280;4068;42.158;24.732;2023-02-20T00:26:37;99816.94;;;13.92;52.83
8051;BME280;4068;42.158;24.732;2023-02-20T00:29:03;99811.03;;;13.89;53.07
8051;BME280;4068;42.158;24.732;2023-02-20T00:31:28;99831.53;;;13.88;52.98
8051;BME280;4068;42.158;24.732;2023-02-20T00:33:53;99817.19;;;13.79;53.01
8051;BME280;4068;42.158;24.732;2023-02-20T00:36:19;99826.47;;;13.85;53.12
8051;BME280;4068;42.158;24.732;2023-02-20T00:38:45;99819.84;;;13.79;53.31
8051;BME280;4068;42.158;24.732;2023-02-20T00:41:11;99818.06;;;13.80;53.14
8051;BME280;4068;42.158;24.732;2023-02-20T00:43:39;99807.38;;;13.70;53.10
8051;BME280;4068;42.158;24.732;2023-02-20T00:46:05;99824.63;;;13.76;53.27
8051;BME280;4068;42.158;24.732;2023-02-20T00:48:30;99820.28;;;13.75;53.28
8051;BME280;4068;42.158;24.732;2023-02-20T00:50:56;99810.88;;;13.71;53.38
8051;BME280;4068;42.158;24.732;2023-02-20T00:53:21;99818.16;;;13.69;53.53
8051;BME280;4068;42.158;24.732;2023-02-20T00:55:46;99788.78;;;13.49;53.72
8051;BME280;4068;42.158;24.732;2023-02-20T00:58:12;99817.16;;;13.60;53.86
8051;BME280;4068;42.158;24.732;2023-02-20T01:00:37;99810.13;;;13.49;54.40
8051;BME280;4068;42.158;24.732;2023-02-20T01:03:03;99811.78;;;13.40;54.67
8051;BME280;4068;42.158;24.732;2023-02-20T01:05:28;99793.03;;;13.21;54.80
8051;BME280;4068;42.158;24.732;2023-02-20T01:07:53;99811.38;;;13.24;55.21
8051;BME280;4068;42.158;24.732;2023-02-20T01:10:19;99806.47;;;13.19;55.47
8051;BME280;4068;42.158;24.732;2023-02-20T01:12:44;99814.72;;;13.16;55.61
8051;BME280;4068;42.158;24.732;2023-02-20T01:15:11;99804.56;;;13.00;55.88
8051;BME280;4068;42.158;24.732;2023-02-20T01:17:36;99830.09;;;13.03;56.13
8051;BME280;4068;42.158;24.732;2023-02-20T01:20:02;99804.53;;;12.90;56.31
8051;BME280;4068;42.158;24.732;2023-02-20T01:22:28;99824.84;;;12.91;56.51
8051;BME280;4068;42.158;24.732;2023-02-20T01:24:53;99828.75;;;12.87;57.08
8051;BME280;4068;42.158;24.732;2023-02-20T01:27:18;99817.56;;;12.72;57.13
8051;BME280;4068;42.158;24.732;2023-02-20T01:29:44;99809.28;;;12.66;57.52
8051;BME280;4068;42.158;24.732;2023-02-20T01:32:11;99820.44;;;12.81;57.43
8051;BME280;4068;42.158;24.732;2023-02-20T01:34:37;99820.84;;;12.76;57.59
8051;BME280;4068;42.158;24.732;2023-02-20T01:37:02;99824.88;;;12.70;57.71
8051;BME280;4068;42.158;24.732;2023-02-20T01:39:28;99822.00;;;12.62;58.16
8051;BME280;4068;42.158;24.732;2023-02-20T01:42:00;99827.72;;;12.57;58.35
8051;BME280;4068;42.158;24.732;2023-02-20T01:44:34;99835.38;;;12.51;58.58
8051;BME280;4068;42.158;24.732;2023-02-20T01:47:04;99833.78;;;12.48;58.64
8051;BME280;4068;42.158;24.732;2023-02-20T01:52:25;99833.81;;;12.27;59.79
8051;BME280;4068;42.158;24.732;2023-02-20T01:54:55;99835.16;;;12.21;60.20
8051;BME280;4068;42.158;24.732;2023-02-20T01:57:23;99841.56;;;12.19;60.27
8051;BME280;4068;42.158;24.732;2023-02-20T01:59:51;99810.19;;;12.01;60.51
8051;BME280;4068;42.158;24.732;2023-02-20T02:02:19;99815.63;;;12.00;60.68
8051;BME280;4068;42.158;24.732;2023-02-20T02:04:46;99844.97;;;12.09;60.91
8051;BME280;4068;42.158;24.732;2023-02-20T02:07:12;99839.56;;;12.00;61.05
8051;BME280;4068;42.158;24.732;2023-02-20T02:09:48;99833.16;;;11.80;61.78
8051;BME280;4068;42.158;24.732;2023-02-20T02:12:15;99870.47;;;11.89;62.04
8051;BME280;4068;42.158;24.732;2023-02-20T02:14:41;99826.81;;;11.60;62.38
8051;BME280;4068;42.158;24.732;2023-02-20T02:17:28;99862.06;;;11.73;62.89
8051;BME280;4068;42.158;24.732;2023-02-20T02:36:45;99886.34;;;11.23;66.64
8051;BME280;4068;42.158;24.732;2023-02-20T02:39:43;99869.19;;;11.16;66.96
8051;BME280;4068;42.158;24.732;2023-02-20T02:42:22;99891.53;;;11.25;67.44
8051;BME280;4068;42.158;24.732;2023-02-20T02:45:37;99894.06;;;11.26;67.39
8051;BME280;4068;42.158;24.732;2023-02-20T02:47:50;99891.28;;;11.28;67.62
8051;BME280;4068;42.158;24.732;2023-02-20T02:50:33;99889.34;;;11.30;67.78
8051;BME280;4068;42.158;24.732;2023-02-20T02:53:02;99893.22;;;11.37;67.46
8051;BME280;4068;42.158;24.732;2023-02-20T02:55:30;99871.84;;;11.27;67.31
8051;BME280;4068;42.158;24.732;2023-02-20T02:57:58;99917.88;;;11.50;66.93
8051;BME280;4068;42.158;24.732;2023-02-20T03:00:29;99921.09;;;11.54;66.74
8051;BME280;4068;42.158;24.732;2023-02-20T03:05:56;99923.06;;;11.52;67.39
8051;BME280;4068;42.158;24.732;2023-02-20T03:08:41;99910.16;;;11.47;67.60
8051;BME280;4068;42.158;24.732;2023-02-20T03:11:15;99918.19;;;11.46;68.14
8051;BME280;4068;42.158;24.732;2023-02-20T03:19:35;99905.03;;;11.21;69.33
8051;BME280;4068;42.158;24.732;2023-02-20T03:22:04;99939.69;;;11.43;69.33
8051;BME280;4068;42.158;24.732;2023-02-20T03:24:32;99947.53;;;11.44;69.22
8051;BME280;4068;42.158;24.732;2023-02-20T03:27:21;99942.72;;;11.49;69.12
8051;BME280;4068;42.158;24.732;2023-02-20T03:29:49;99945.25;;;11.51;69.14
8051;BME280;4068;42.158;24.732;2023-02-20T03:32:17;99942.22;;;11.44;69.51
8051;BME280;4068;42.158;24.732;2023-02-20T03:35:03;99930.25;;;11.27;69.85
8051;BME280;4068;42.158;24.732;2023-02-20T03:37:49;99935.69;;;11.37;69.99
8051;BME280;4068;42.158;24.732;2023-02-20T03:40:35;99916.50;;;11.22;69.81
8051;BME280;4068;42.158;24.732;2023-02-20T03:43:20;99961.53;;;11.35;70.20
8051;BME280;4068;42.158;24.732;2023-02-20T03:45:48;99963.56;;;11.31;70.88
8051;BME280;4068;42.158;24.732;2023-02-20T03:48:18;99968.69;;;11.34;71.67
8051;BME280;4068;42.158;24.732;2023-02-20T03:50:44;99974.00;;;11.34;71.35
8051;BME280;4068;42.158;24.732;2023-02-20T03:53:29;99972.41;;;11.32;71.19
8051;BME280;4068;42.158;24.732;2023-02-20T03:55:57;99976.28;;;11.39;70.61
8051;BME280;4068;42.158;24.732;2023-02-20T03:58:26;99974.34;;;11.41;70.65
8051;BME280;4068;42.158;24.732;2023-02-20T04:00:55;99958.16;;;11.33;70.34
8051;BME280;4068;42.158;24.732;2023-02-20T04:03:25;99979.19;;;11.47;70.30
8051;BME280;4068;42.158;24.732;2023-02-20T04:05:54;99988.13;;;11.46;70.33
8051;BME280;4068;42.158;24.732;2023-02-20T04:11:32;99985.59;;;11.45;70.14
8051;BME280;4068;42.158;24.732;2023-02-20T04:13:55;99971.91;;;11.38;70.88
8051;BME280;4068;42.158;24.732;2023-02-20T04:16:21;99988.13;;;11.46;70.73
8051;BME280;4068;42.158;24.732;2023-02-20T04:18:48;99973.47;;;11.29;71.30
8051;BME280;4068;42.158;24.732;2023-02-20T04:21:31;99986.63;;;11.31;71.68
8051;BME280;4068;42.158;24.732;2023-02-20T04:24:10;99975.63;;;11.24;71.76
8051;BME280;4068;42.158;24.732;2023-02-20T04:26:37;99982.84;;;11.11;71.92
8051;BME280;4068;42.158;24.732;2023-02-20T04:29:03;99956.88;;;11.03;71.31
8051;BME280;4068;42.158;24.732;2023-02-20T04:31:29;99995.28;;;11.21;70.98
8051;BME280;4068;42.158;24.732;2023-02-20T04:33:55;99990.47;;;11.15;70.79
8051;BME280;4068;42.158;24.732;2023-02-20T04:36:21;99969.31;;;11.02;70.51
8051;BME280;4068;42.158;24.732;2023-02-20T04:38:46;99982.84;;;11.11;70.04
8051;BME280;4068;42.158;24.732;2023-02-20T04:41:12;99980.31;;;11.09;69.59
8051;BME280;4068;42.158;24.732;2023-02-20T04:43:37;99986.56;;;11.08;69.91
8051;BME280;4068;42.158;24.732;2023-02-20T04:46:03;99976.19;;;11.05;69.77
8051;BME280;4068;42.158;24.732;2023-02-20T04:48:28;99990.19;;;11.07;69.49
8051;BME280;4068;42.158;24.732;2023-02-20T04:50:54;99989.47;;;11.05;70.03
8051;BME280;4068;42.158;24.732;2023-02-20T04:53:19;99993.59;;;11.09;68.88
8051;BME280;4068;42.158;24.732;2023-02-20T04:55:45;99968.47;;;11.02;67.61
8051;BME280;4068;42.158;24.732;2023-02-20T04:58:10;99990.69;;;11.12;66.65
8051;BME280;4068;42.158;24.732;2023-02-20T05:00:36;99994.41;;;11.10;65.78
8051;BME280;4068;42.158;24.732;2023-02-20T05:03:01;100005.56;;;11.15;65.44
8051;BME280;4068;42.158;24.732;2023-02-20T05:05:28;99977.28;;;11.02;65.04
8051;BME280;4068;42.158;24.732;2023-02-20T05:07:56;99989.47;;;11.05;65.20
8051;BME280;4068;42.158;24.732;2023-02-20T05:10:23;100005.91;;;11.10;65.07
8051;BME280;4068;42.158;24.732;2023-02-20T05:12:49;100000.81;;;11.07;65.05
8051;BME280;4068;42.158;24.732;2023-02-20T05:15:15;100002.63;;;11.07;65.15
8051;BME280;4068;42.158;24.732;2023-02-20T05:17:40;100002.00;;;11.03;65.11
8051;BME280;4068;42.158;24.732;2023-02-20T05:20:06;100010.41;;;10.97;65.38
8051;BME280;4068;42.158;24.732;2023-02-20T05:22:32;99983.34;;;10.80;65.40
8051;BME280;4068;42.158;24.732;2023-02-20T05:24:58;100023.09;;;10.93;65.64
8051;BME280;4068;42.158;24.732;2023-02-20T05:27:24;100029.34;;;10.92;65.77
8051;BME280;4068;42.158;24.732;2023-02-20T05:29:55;99997.06;;;10.74;65.65
8051;BME280;4068;42.158;24.732;2023-02-20T05:32:22;100045.38;;;10.91;65.92
8051;BME280;4068;42.158;24.732;2023-02-20T05:34:48;100042.84;;;10.89;66.00
8051;BME280;4068;42.158;24.732;2023-02-20T05:37:15;100054.19;;;10.91;65.97
8051;BME280;4068;42.158;24.732;2023-02-20T05:39:41;100050.41;;;10.82;66.18
8051;BME280;4068;42.158;24.732;2023-02-20T05:42:07;100042.69;;;10.79;65.93
8051;BME280;4068;42.158;24.732;2023-02-20T05:44:32;100073.63;;;10.92;65.13
8051;BME280;4068;42.158;24.732;2023-02-20T05:46:58;100080.66;;;11.04;64.62
8051;BME280;4068;42.158;24.732;2023-02-20T05:49:24;100083.09;;;11.07;64.07
8051;BME280;4068;42.158;24.732;2023-02-20T05:51:50;100054.69;;;10.96;63.65
8051;BME280;4068;42.158;24.732;2023-02-20T05:54:18;100071.63;;;11.07;63.72
8051;BME280;4068;42.158;24.732;2023-02-20T05:56:44;100096.16;;;11.21;63.43
8051;BME280;4068;42.158;24.732;2023-02-20T05:59:11;100113.38;;;11.29;63.31
8051;BME280;4068;42.158;24.732;2023-02-20T06:01:37;100113.84;;;11.34;63.21
8051;BME280;4068;42.158;24.732;2023-02-20T06:04:02;100097.75;;;11.24;63.16
8051;BME280;4068;42.158;24.732;2023-02-20T06:06:46;100106.63;;;11.36;62.65
8051;BME280;4068;42.158;24.732;2023-02-20T06:09:12;100112.06;;;11.46;61.67
8051;BME280;4068;42.158;24.732;2023-02-20T06:11:47;100096.50;;;11.41;61.47
8051;BME280;4068;42.158;24.732;2023-02-20T06:14:15;100113.94;;;11.56;60.76
8051;BME280;4068;42.158;24.732;2023-02-20T06:16:41;100123.97;;;11.64;60.49
8051;BME280;4068;42.158;24.732;2023-02-20T06:19:06;100136.81;;;11.70;60.31
8051;BME280;4068;42.158;24.732;2023-02-20T06:21:32;100152.41;;;11.75;59.04
8051;BME280;4068;42.158;24.732;2023-02-20T06:24:00;100148.81;;;11.87;57.51
8051;BME280;4068;42.158;24.732;2023-02-20T06:26:26;100137.88;;;12.03;56.28
8051;BME280;4068;42.158;24.732;2023-02-20T06:28:51;100158.22;;;12.16;55.60
8051;BME280;4068;42.158;24.732;2023-02-20T06:31:23;100141.63;;;12.12;55.12
8051;BME280;4068;42.158;24.732;2023-02-20T06:33:49;100142.47;;;12.24;54.77
8051;BME280;4068;42.158;24.732;2023-02-20T06:36:28;100179.41;;;12.40;54.23
8051;BME280;4068;42.158;24.732;2023-02-20T06:38:54;100164.03;;;12.43;54.05
8051;BME280;4068;42.158;24.732;2023-02-20T06:41:20;100158.69;;;12.55;53.35
8051;BME280;4068;42.158;24.732;2023-02-20T06:43:45;100162.44;;;12.64;52.64
8051;BME280;4068;42.158;24.732;2023-02-20T06:46:11;100157.25;;;12.73;52.47
8051;BME280;4068;42.158;24.732;2023-02-20T06:48:47;100127.97;;;12.73;52.58
8051;BME280;4068;42.158;24.732;2023-02-20T06:51:23;100146.22;;;12.78;52.99
8051;BME280;4068;42.158;24.732;2023-02-20T06:53:49;100133.53;;;12.82;53.08
8051;BME280;4068;42.158;24.732;2023-02-20T06:56:20;100147.41;;;12.85;53.27
8051;BME280;4068;42.158;24.732;2023-02-20T06:58:47;100139.09;;;12.90;53.06
8051;BME280;4068;42.158;24.732;2023-02-20T07:01:14;100100.00;;;12.79;53.07
8051;BME280;4068;42.158;24.732;2023-02-20T07:03:40;100127.66;;;12.99;52.60
8051;BME280;4068;42.158;24.732;2023-02-20T07:06:05;100121.25;;;13.02;52.46
8051;BME280;4068;42.158;24.732;2023-02-20T07:08:31;100120.50;;;13.11;51.89
8051;BME280;4068;42.158;24.732;2023-02-20T07:10:56;100091.22;;;13.00;51.55
8051;BME280;4068;42.158;24.732;2023-02-20T07:13:22;100117.78;;;13.22;51.62
8051;BME280;4068;42.158;24.732;2023-02-20T07:15:48;100131.59;;;13.27;50.85
8051;BME280;4068;42.158;24.732;2023-02-20T07:18:14;100094.69;;;13.23;49.80
8051;BME280;4068;42.158;24.732;2023-02-20T07:20:41;100123.47;;;13.40;49.39
8051;BME280;4068;42.158;24.732;2023-02-20T07:23:07;100130.31;;;13.54;49.02
8051;BME280;4068;42.158;24.732;2023-02-20T07:25:32;100131.47;;;13.61;48.29
8051;BME280;4068;42.158;24.732;2023-02-20T07:27:58;100127.94;;;13.61;47.91
8051;BME280;4068;42.158;24.732;2023-02-20T07:30:23;100118.78;;;13.54;47.46
8051;BME280;4068;42.158;24.732;2023-02-20T07:32:50;100100.84;;;13.56;47.88
8051;BME280;4068;42.158;24.732;2023-02-20T07:35:15;100112.97;;;13.60;46.73
8051;BME280;4068;42.158;24.732;2023-02-20T07:37:41;100132.84;;;13.77;46.77
8051;BME280;4068;42.158;24.732;2023-02-20T07:40:07;100120.75;;;13.73;46.33
8051;BME280;4068;42.158;24.732;2023-02-20T07:42:33;100129.78;;;13.81;45.79
8051;BME280;4068;42.158;24.732;2023-02-20T07:44:58;100148.06;;;13.86;45.16
8051;BME280;4068;42.158;24.732;2023-02-20T07:47:24;100137.13;;;13.89;44.80
8051;BME280;4068;42.158;24.732;2023-02-20T07:49:49;100134.78;;;13.96;44.78
8051;BME280;4068;42.158;24.732;2023-02-20T07:52:14;100134.25;;;14.02;43.99
8051;BME280;4068;42.158;24.732;2023-02-20T07:54:40;100137.53;;;14.06;42.75
8051;BME280;4068;42.158;24.732;2023-02-20T07:57:05;100143.31;;;14.11;42.91
8051;BME280;4068;42.158;24.732;2023-02-20T07:59:31;100138.88;;;14.21;42.42
8051;BME280;4068;42.158;24.732;2023-02-20T08:01:56;100140.47;;;14.33;42.68
8051;BME280;4068;42.158;24.732;2023-02-20T08:04:21;100156.59;;;14.32;41.82
8051;BME280;4068;42.158;24.732;2023-02-20T08:06:47;100135.44;;;14.40;42.44
8051;BME280;4068;42.158;24.732;2023-02-20T08:09:12;100129.88;;;14.53;42.30
8051;BME280;4068;42.158;24.732;2023-02-20T08:11:38;100118.09;;;14.56;41.70
8051;BME280;4068;42.158;24.732;2023-02-20T08:14:04;100157.16;;;14.57;41.27
8051;BME280;4068;42.158;24.732;2023-02-20T08:16:30;100130.97;;;14.50;41.25
8051;BME280;4068;42.158;24.732;2023-02-20T08:18:55;100139.31;;;14.57;40.74
8051;BME280;4068;42.158;24.732;2023-02-20T08:21:21;100136.28;;;14.72;40.91
8051;BME280;4068;42.158;24.732;2023-02-20T08:23:47;100130.44;;;14.78;39.31
8051;BME280;4068;42.158;24.732;2023-02-20T08:26:13;100144.59;;;14.78;38.92
8051;BME280;4068;42.158;24.732;2023-02-20T08:28:38;100153.31;;;14.80;38.47
8051;BME280;4068;42.158;24.732;2023-02-20T08:31:04;100110.66;;;14.59;38.43
8051;BME280;4068;42.158;24.732;2023-02-20T08:33:29;100135.88;;;14.76;38.78
8051;BME280;4068;42.158;24.732;2023-02-20T08:35:55;100154.44;;;14.78;38.55
8051;BME280;4068;42.158;24.732;2023-02-20T08:38:33;100131.13;;;14.80;38.49
8051;BME280;4068;42.158;24.732;2023-02-20T08:41:02;100123.69;;;14.93;38.44
8051;BME280;4068;42.158;24.732;2023-02-20T08:43:28;100139.03;;;15.01;37.63
8051;BME280;4068;42.158;24.732;2023-02-20T08:45:54;100133.84;;;14.99;37.50
8051;BME280;4068;42.158;24.732;2023-02-20T08:48:19;100111.50;;;15.10;37.36
8051;BME280;4068;42.158;24.732;2023-02-20T08:50:45;100103.75;;;15.07;36.31
8051;BME280;4068;42.158;24.732;2023-02-20T08:53:12;100104.47;;;15.09;36.29
8051;BME280;4068;42.158;24.732;2023-02-20T08:55:38;100106.00;;;15.12;36.07
8051;BME280;4068;42.158;24.732;2023-02-20T08:58:04;100095.31;;;15.22;35.78
8051;BME280;4068;42.158;24.732;2023-02-20T09:00:29;100101.81;;;15.39;35.89
8051;BME280;4068;42.158;24.732;2023-02-20T09:02:55;100100.81;;;15.49;35.61
8051;BME280;4068;42.158;24.732;2023-02-20T09:05:20;100088.59;;;15.47;34.95
8051;BME280;4068;42.158;24.732;2023-02-20T09:07:46;100099.13;;;15.58;34.92
8051;BME280;4068;42.158;24.732;2023-02-20T09:10:11;100133.88;;;15.68;34.76
8051;BME280;4068;42.158;24.732;2023-02-20T09:12:37;100122.88;;;15.71;33.75
8051;BME280;4068;42.158;24.732;2023-02-20T09:15:07;100120.75;;;15.75;31.80
8051;BME280;4068;42.158;24.732;2023-02-20T09:17:33;100121.78;;;15.74;32.44
8051;BME280;4068;42.158;24.732;2023-02-20T09:19:58;100127.94;;;15.64;31.53
8051;BME280;4068;42.158;24.732;2023-02-20T09:22:25;100122.88;;;15.71;31.75
8051;BME280;4068;42.158;24.732;2023-02-20T09:24:52;100139.09;;;15.89;31.46
8051;BME280;4068;42.158;24.732;2023-02-20T09:27:18;100150.47;;;15.91;31.07
8051;BME280;4068;42.158;24.732;2023-02-20T09:29:44;100157.81;;;15.89;30.39
8051;BME280;4068;42.158;24.732;2023-02-20T09:32:10;100146.84;;;15.82;31.52
8051;BME280;4068;42.158;24.732;2023-02-20T09:34:36;100153.16;;;15.91;31.90
8051;BME280;4068;42.158;24.732;2023-02-20T09:37:01;100151.28;;;16.01;32.03
8051;BME280;4068;42.158;24.732;2023-02-20T09:39:27;100121.34;;;15.98;31.78
8051;BME280;4068;42.158;24.732;2023-02-20T09:50:11;100138.31;;;16.16;28.67
8051;BME280;4068;42.158;24.732;2023-02-20T09:52:39;100145.59;;;16.24;29.07
8051;BME280;4068;42.158;24.732;2023-02-20T09:55:11;100143.34;;;16.29;27.76
8051;BME280;4068;42.158;24.732;2023-02-20T09:57:39;100141.09;;;16.25;27.11
8051;BME280;4068;42.158;24.732;2023-02-20T10:00:13;100149.53;;;16.30;26.80
8051;BME280;4068;42.158;24.732;2023-02-20T10:02:45;100125.31;;;16.31;26.53
8051;BME280;4068;42.158;24.732;2023-02-20T10:05:25;100158.81;;;16.35;26.87
8051;BME280;4068;42.158;24.732;2023-02-20T10:07:52;100117.88;;;16.25;26.47
8051;BME280;4068;42.158;24.732;2023-02-20T10:15:58;100116.69;;;16.37;26.24
8051;BME280;4068;42.158;24.732;2023-02-20T10:21:32;100132.16;;;16.44;25.87
8051;BME280;4068;42.158;24.732;2023-02-20T10:24:12;100123.97;;;16.45;25.68
8051;BME280;4068;42.158;24.732;2023-02-20T10:26:46;100108.44;;;16.49;25.91
8051;BME280;4068;42.158;24.732;2023-02-20T10:29:19;100130.25;;;16.64;25.53
8051;BME280;4068;42.158;24.732;2023-02-20T10:31:52;100125.03;;;16.62;25.24
8051;BME280;4068;42.158;24.732;2023-02-20T10:37:28;100129.88;;;16.49;25.44
8051;BME280;4068;42.158;24.732;2023-02-20T10:42:37;100105.19;;;16.55;25.13
8051;BME280;4068;42.158;24.732;2023-02-20T10:45:16;100105.72;;;16.59;25.18
8051;BME280;4068;42.158;24.732;2023-02-20T10:47:48;100070.97;;;16.49;25.26
8051;BME280;4068;42.158;24.732;2023-02-20T10:56:00;100102.78;;;16.62;25.38
8051;BME280;4068;42.158;24.732;2023-02-20T11:01:00;100072.16;;;16.64;25.16
8051;BME280;4068;42.158;24.732;2023-02-20T11:03:35;100086.72;;;16.80;25.30
8051;BME280;4068;42.158;24.732;2023-02-20T11:06:04;100065.72;;;16.57;25.09
8051;BME280;4068;42.158;24.732;2023-02-20T11:08:31;100111.44;;;16.73;25.17
8051;BME280;4068;42.158;24.732;2023-02-20T11:11:35;100094.41;;;16.74;25.27
8051;BME280;4068;42.158;24.732;2023-02-20T11:14:15;100084.47;;;16.85;25.40
8051;BME280;4068;42.158;24.732;2023-02-20T11:16:46;100086.84;;;16.88;25.02
8051;BME280;4068;42.158;24.732;2023-02-20T11:19:27;100089.38;;;16.89;24.58
8051;BME280;4068;42.158;24.732;2023-02-20T11:21:54;100078.66;;;16.89;24.39
8051;BME280;4068;42.158;24.732;2023-02-20T11:26:56;100070.16;;;16.94;23.95
8051;BME280;4068;42.158;24.732;2023-02-20T11:29:23;100077.69;;;17.08;24.84
8051;BME280;4068;42.158;24.732;2023-02-20T11:31:49;100090.25;;;17.26;24.26
8051;BME280;4068;42.158;24.732;2023-02-20T11:34:21;100075.25;;;17.33;24.12
8051;BME280;4068;42.158;24.732;2023-02-20T11:36:51;100043.97;;;17.24;23.84
8051;BME280;4068;42.158;24.732;2023-02-20T11:42:05;100116.19;;;17.43;24.03
8051;BME280;4068;42.158;24.732;2023-02-20T11:44:35;100081.34;;;17.43;24.05
8051;BME280;4068;42.158;24.732;2023-02-20T11:47:24;100094.06;;;17.41;24.76
8051;BME280;4068;42.158;24.732;2023-02-20T11:52:57;100100.59;;;17.39;24.75
8051;BME280;4068;42.158;24.732;2023-02-20T11:55:25;100095.66;;;17.52;24.60
8051;BME280;4068;42.158;24.732;2023-02-20T11:57:51;100097.94;;;17.47;24.62
8051;BME280;4068;42.158;24.732;2023-02-20T12:02:51;100079.06;;;17.49;25.12
8051;BME280;4068;42.158;24.732;2023-02-20T12:05:18;100097.44;;;17.43;24.80
8051;BME280;4068;42.158;24.732;2023-02-20T12:10:34;100085.19;;;17.41;24.69
8051;BME280;4068;42.158;24.732;2023-02-20T12:13:03;100077.69;;;17.45;24.50
8051;BME280;4068;42.158;24.732;2023-02-20T12:15:29;100085.25;;;17.49;24.57
8051;BME280;4068;42.158;24.732;2023-02-20T12:20:53;100076.81;;;17.44;24.97
8051;BME280;4068;42.158;24.732;2023-02-20T12:23:47;100081.09;;;17.55;24.96
8051;BME280;4068;42.158;24.732;2023-02-20T12:32:25;100076.88;;;17.52;24.74
8051;BME280;4068;42.158;24.732;2023-02-20T12:54:39;100068.84;;;17.52;24.95
8051;BME280;4068;42.158;24.732;2023-02-20T12:57:23;100073.44;;;17.60;24.96
8051;BME280;4068;42.158;24.732;2023-02-20T13:00:21;100072.00;;;17.74;25.24
8051;BME280;4068;42.158;24.732;2023-02-20T13:02:54;100052.44;;;17.55;24.77
8051;BME280;4068;42.158;24.732;2023-02-20T13:05:25;100070.78;;;17.68;24.98
8051;BME280;4068;42.158;24.732;2023-02-20T13:08:00;100067.59;;;17.65;24.72
8051;BME280;4068;42.158;24.732;2023-02-20T13:10:33;100066.72;;;17.56;25.06
8051;BME280;4068;42.158;24.732;2023-02-20T13:12:59;100041.88;;;17.54;25.11
8051;BME280;4068;42.158;24.732;2023-02-20T13:16:00;100043.41;;;17.56;25.22
8051;BME280;4068;42.158;24.732;2023-02-20T13:21:16;100066.91;;;17.63;24.94
8051;BME280;4068;42.158;24.732;2023-02-20T13:23:44;100082.56;;;17.67;25.22
8051;BME280;4068;42.158;24.732;2023-02-20T13:28:51;100080.94;;;17.56;25.17
8051;BME280;4068;42.158;24.732;2023-02-20T13:31:39;100085.75;;;17.53;25.09
8051;BME280;4068;42.158;24.732;2023-02-20T13:36:48;100098.66;;;17.49;24.82
8051;BME280;4068;42.158;24.732;2023-02-20T13:42:30;100082.13;;;17.36;24.79
8051;BME280;4068;42.158;24.732;2023-02-20T13:44:55;100092.38;;;17.40;24.70
8051;BME280;4068;42.158;24.732;2023-02-20T13:52:46;100073.00;;;17.29;24.50
8051;BME280;4068;42.158;24.732;2023-02-20T13:55:25;100084.66;;;17.37;24.28
8051;BME280;4068;42.158;24.732;2023-02-20T13:58:08;100090.19;;;17.36;24.56
8051;BME280;4068;42.158;24.732;2023-02-20T14:03:30;100086.16;;;17.40;24.54
8051;BME280;4068;42.158;24.732;2023-02-20T14:06:11;100071.09;;;17.21;24.26
8051;BME280;4068;42.158;24.732;2023-02-20T14:08:39;100096.84;;;17.32;24.37
8051;BME280;4068;42.158;24.732;2023-02-20T14:13:49;100093.09;;;17.24;24.87
8051;BME280;4068;42.158;24.732;2023-02-20T14:16:36;100075.06;;;17.17;24.83
8051;BME280;4068;42.158;24.732;2023-02-20T14:19:25;100093.91;;;17.25;25.13
8051;BME280;4068;42.158;24.732;2023-02-20T14:21:52;100093.69;;;17.18;24.97
8051;BME280;4068;42.158;24.732;2023-02-20T14:24:24;100106.16;;;17.10;25.28
8051;BME280;4068;42.158;24.732;2023-02-20T14:26:50;100095.50;;;17.00;25.14
8051;BME280;4068;42.158;24.732;2023-02-20T14:29:26;100105.25;;;17.01;25.13
8051;BME280;4068;42.158;24.732;2023-02-20T14:31:54;100122.16;;;17.01;25.50
8051;BME280;4068;42.158;24.732;2023-02-20T14:34:22;100099.06;;;17.00;25.95
8051;BME280;4068;42.158;24.732;2023-02-20T14:37:15;100083.88;;;16.91;26.20
8051;BME280;4068;42.158;24.732;2023-02-20T14:39:59;100097.41;;;16.89;26.70
8051;BME280;4068;42.158;24.732;2023-02-20T14:42:27;100084.22;;;16.78;26.91
8051;BME280;4068;42.158;24.732;2023-02-20T14:45:02;100081.13;;;16.73;27.09
8051;BME280;4068;42.158;24.732;2023-02-20T14:47:28;100093.84;;;16.71;27.25
8051;BME280;4068;42.158;24.732;2023-02-20T14:50:09;100103.09;;;16.77;27.41
8051;BME280;4068;42.158;24.732;2023-02-20T14:52:39;100108.22;;;16.70;27.69
8051;BME280;4068;42.158;24.732;2023-02-20T14:55:05;100107.13;;;16.63;27.88
8051;BME280;4068;42.158;24.732;2023-02-20T14:57:33;100089.63;;;16.41;28.08
8051;BME280;4068;42.158;24.732;2023-02-20T15:02:42;100093.91;;;16.33;28.26
8051;BME280;4068;42.158;24.732;2023-02-20T15:05:13;100097.28;;;16.26;28.46
8051;BME280;4068;42.158;24.732;2023-02-20T15:07:43;100084.97;;;16.05;28.72
8051;BME280;4068;42.158;24.732;2023-02-20T15:13:04;100111.75;;;16.05;29.28
8051;BME280;4068;42.158;24.732;2023-02-20T15:15:36;100124.16;;;15.96;29.45
8051;BME280;4068;42.158;24.732;2023-02-20T15:18:09;100122.03;;;15.90;30.04
8051;BME280;4068;42.158;24.732;2023-02-20T15:20:38;100129.81;;;15.83;30.09
8051;BME280;4068;42.158;24.732;2023-02-20T15:25:40;100143.44;;;15.61;30.50
8051;BME280;4068;42.158;24.732;2023-02-20T15:28:22;100148.38;;;15.56;30.06
8051;BME280;4068;42.158;24.732;2023-02-20T15:33:54;100146.94;;;15.42;27.10
8051;BME280;4068;42.158;24.732;2023-02-20T15:36:23;100153.69;;;15.36;26.96